sensor_id;sensor_type;location;lat;lon;timestamp;temperature;humidity
52513;DHT22;38422;53.172;6.974;2023-06-10T00:01:38;21.10;76.80
52513;DHT22;38422;53.172;6.974;2023-06-10T00:04:03;21.00;76.90
52513;DHT22;38422;53.172;6.974;2023-06-10T00:06:30;21.00;77.00
52513;DHT22;38422;53.172;6.974;2023-06-10T00:09:02;21.00;77.00
52513;DHT22;38422;53.172;6.974;2023-06-10T00:11:30;20.90;77.00
52513;DHT22;38422;53.172;6.974;2023-06-10T00:13:56;20.90;77.00
52513;DHT22;38422;53.172;6.974;2023-06-10T00:16:22;20.80;76.90
52513;DHT22;38422;53.172;6.974;2023-06-10T00:18:48;20.80;77.10
52513;DHT22;38422;53.172;6.974;2023-06-10T00:21:17;20.80;77.30
52513;DHT22;38422;53.172;6.974;2023-06-10T00:23:43;20.70;77.50
52513;DHT22;38422;53.172;6.974;2023-06-10T00:26:09;20.70;77.60
52513;DHT22;38422;53.172;6.974;2023-06-10T00:28:35;20.60;78.40
52513;DHT22;38422;53.172;6.974;2023-06-10T00:31:01;20.50;77.90
52513;DHT22;38422;53.172;6.974;2023-06-10T00:33:27;20.50;78.10
52513;DHT22;38422;53.172;6.974;2023-06-10T00:35:53;20.40;78.20
52513;DHT22;38422;53.172;6.974;2023-06-10T00:38:19;20.50;78.30
52513;DHT22;38422;53.172;6.974;2023-06-10T00:40:45;20.40;78.30
52513;DHT22;38422;53.172;6.974;2023-06-10T00:43:11;20.30;78.20
52513;DHT22;38422;53.172;6.974;2023-06-10T00:45:37;20.30;78.40
52513;DHT22;38422;53.172;6.974;2023-06-10T00:48:03;20.20;78.60
52513;DHT22;38422;53.172;6.974;2023-06-10T00:50:29;20.10;78.70
52513;DHT22;38422;53.172;6.974;2023-06-10T00:52:59;20.10;78.80
52513;DHT22;38422;53.172;6.974;2023-06-10T00:55:26;20.10;78.90
52513;DHT22;38422;53.172;6.974;2023-06-10T00:57:53;20.00;79.10
52513;DHT22;38422;53.172;6.974;2023-06-10T01:00:19;20.00;79.20
52513;DHT22;38422;53.172;6.974;2023-06-10T01:02:44;19.90;79.30
52513;DHT22;38422;53.172;6.974;2023-06-10T01:05:10;19.80;79.60
52513;DHT22;38422;53.172;6.974;2023-06-10T01:10:54;19.80;80.30
52513;DHT22;38422;53.172;6.974;2023-06-10T01:13:23;19.70;80.50
52513;DHT22;38422;53.172;6.974;2023-06-10T01:15:54;19.70;80.10
52513;DHT22;38422;53.172;6.974;2023-06-10T01:18:21;19.60;80.20
52513;DHT22;38422;53.172;6.974;2023-06-10T01:20:47;19.60;80.90
52513;DHT22;38422;53.172;6.974;2023-06-10T01:23:14;19.50;80.50
52513;DHT22;38422;53.172;6.974;2023-06-10T01:26:00;19.40;80.60
52513;DHT22;38422;53.172;6.974;2023-06-10T01:31:46;19.30;81.00
52513;DHT22;38422;53.172;6.974;2023-06-10T01:34:17;19.30;81.30
52513;DHT22;38422;53.172;6.974;2023-06-10T01:36:48;19.30;81.40
52513;DHT22;38422;53.172;6.974;2023-06-10T01:39:16;19.20;81.60
52513;DHT22;38422;53.172;6.974;2023-06-10T01:41:43;19.10;81.80
52513;DHT22;38422;53.172;6.974;2023-06-10T01:44:09;19.10;82.00
52513;DHT22;38422;53.172;6.974;2023-06-10T01:46:35;19.00;82.10
52513;DHT22;38422;53.172;6.974;2023-06-10T01:49:00;19.00;82.40
52513;DHT22;38422;53.172;6.974;2023-06-10T01:51:26;18.90;82.60
52513;DHT22;38422;53.172;6.974;2023-06-10T01:53:52;18.80;82.70
52513;DHT22;38422;53.172;6.974;2023-06-10T01:56:18;18.80;82.90
52513;DHT22;38422;53.172;6.974;2023-06-10T01:58:48;18.70;83.10
52513;DHT22;38422;53.172;6.974;2023-06-10T02:01:14;18.60;84.20
52513;DHT22;38422;53.172;6.974;2023-06-10T02:03:40;18.50;83.60
52513;DHT22;38422;53.172;6.974;2023-06-10T02:06:06;18.50;83.90
52513;DHT22;38422;53.172;6.974;2023-06-10T02:08:32;18.40;84.20
52513;DHT22;38422;53.172;6.974;2023-06-10T02:10:58;18.30;84.30
52513;DHT22;38422;53.172;6.974;2023-06-10T02:13:23;18.30;84.60
52513;DHT22;38422;53.172;6.974;2023-06-10T02:15:49;18.30;84.70
52513;DHT22;38422;53.172;6.974;2023-06-10T02:18:15;18.20;85.00
52513;DHT22;38422;53.172;6.974;2023-06-10T02:20:41;18.20;85.20
52513;DHT22;38422;53.172;6.974;2023-06-10T02:23:06;18.20;85.50
52513;DHT22;38422;53.172;6.974;2023-06-10T02:25:32;18.10;85.60
52513;DHT22;38422;53.172;6.974;2023-06-10T02:27:58;18.10;85.80
52513;DHT22;38422;53.172;6.974;2023-06-10T02:30:23;18.00;86.10
52513;DHT22;38422;53.172;6.974;2023-06-10T02:32:49;18.00;86.50
52513;DHT22;38422;53.172;6.974;2023-06-10T02:35:16;18.00;86.80
52513;DHT22;38422;53.172;6.974;2023-06-10T02:37:43;17.90;87.10
52513;DHT22;38422;53.172;6.974;2023-06-10T02:40:09;17.90;87.60
52513;DHT22;38422;53.172;6.974;2023-06-10T02:42:36;17.90;87.80
52513;DHT22;38422;53.172;6.974;2023-06-10T02:45:02;17.80;88.10
52513;DHT22;38422;53.172;6.974;2023-06-10T02:47:28;17.80;88.40
52513;DHT22;38422;53.172;6.974;2023-06-10T02:49:53;17.80;88.90
52513;DHT22;38422;53.172;6.974;2023-06-10T02:52:19;17.70;89.30
52513;DHT22;38422;53.172;6.974;2023-06-10T02:54:46;17.70;89.90
52513;DHT22;38422;53.172;6.974;2023-06-10T02:57:11;17.70;90.00
52513;DHT22;38422;53.172;6.974;2023-06-10T02:59:37;17.70;90.20
52513;DHT22;38422;53.172;6.974;2023-06-10T03:02:03;17.60;90.40
52513;DHT22;38422;53.172;6.974;2023-06-10T03:04:29;17.60;90.60
52513;DHT22;38422;53.172;6.974;2023-06-10T03:06:56;17.60;90.90
52513;DHT22;38422;53.172;6.974;2023-06-10T03:09:21;17.60;91.00
52513;DHT22;38422;53.172;6.974;2023-06-10T03:11:47;17.60;91.20
52513;DHT22;38422;53.172;6.974;2023-06-10T03:14:13;17.60;91.40
52513;DHT22;38422;53.172;6.974;2023-06-10T03:16:39;17.60;91.60
52513;DHT22;38422;53.172;6.974;2023-06-10T03:19:11;17.60;91.90
52513;DHT22;38422;53.172;6.974;2023-06-10T03:21:37;17.60;92.10
52513;DHT22;38422;53.172;6.974;2023-06-10T03:24:03;17.50;92.30
52513;DHT22;38422;53.172;6.974;2023-06-10T03:26:29;17.50;92.60
52513;DHT22;38422;53.172;6.974;2023-06-10T03:28:55;17.50;92.90
52513;DHT22;38422;53.172;6.974;2023-06-10T03:31:20;17.50;93.10
52513;DHT22;38422;53.172;6.974;2023-06-10T03:33:46;17.50;93.40
52513;DHT22;38422;53.172;6.974;2023-06-10T03:36:12;17.50;93.60
52513;DHT22;38422;53.172;6.974;2023-06-10T03:38:38;17.50;93.80
52513;DHT22;38422;53.172;6.974;2023-06-10T03:41:03;17.50;93.90
52513;DHT22;38422;53.172;6.974;2023-06-10T03:43:29;17.40;94.20
52513;DHT22;38422;53.172;6.974;2023-06-10T03:45:56;17.40;94.30
52513;DHT22;38422;53.172;6.974;2023-06-10T03:48:22;17.30;95.50
52513;DHT22;38422;53.172;6.974;2023-06-10T03:50:47;17.20;94.90
52513;DHT22;38422;53.172;6.974;2023-06-10T03:53:16;17.20;95.10
52513;DHT22;38422;53.172;6.974;2023-06-10T03:55:42;17.10;95.50
52513;DHT22;38422;53.172;6.974;2023-06-10T03:58:07;17.10;95.90
52513;DHT22;38422;53.172;6.974;2023-06-10T04:00:33;17.10;96.20
52513;DHT22;38422;53.172;6.974;2023-06-10T04:03:10;17.10;96.50
52513;DHT22;38422;53.172;6.974;2023-06-10T04:05:40;17.00;96.80
52513;DHT22;38422;53.172;6.974;2023-06-10T04:08:07;17.00;97.40
52513;DHT22;38422;53.172;6.974;2023-06-10T04:10:33;17.00;97.60
52513;DHT22;38422;53.172;6.974;2023-06-10T04:12:58;17.00;98.00
52513;DHT22;38422;53.172;6.974;2023-06-10T04:15:25;16.90;98.40
52513;DHT22;38422;53.172;6.974;2023-06-10T04:17:51;16.90;98.90
52513;DHT22;38422;53.172;6.974;2023-06-10T04:20:17;16.90;99.40
52513;DHT22;38422;53.172;6.974;2023-06-10T04:22:42;16.90;99.70
52513;DHT22;38422;53.172;6.974;2023-06-10T04:25:09;17.00;99.90
52513;DHT22;38422;53.172;6.974;2023-06-10T04:27:35;17.00;99.90
52513;DHT22;38422;53.172;6.974;2023-06-10T04:30:01;17.00;99.90
52513;DHT22;38422;53.172;6.974;2023-06-10T04:32:27;17.00;99.90
52513;DHT22;38422;53.172;6.974;2023-06-10T04:34:52;16.90;99.90
52513;DHT22;38422;53.172;6.974;2023-06-10T04:37:18;16.90;99.90
52513;DHT22;38422;53.172;6.974;2023-06-10T04:39:44;16.90;99.90
52513;DHT22;38422;53.172;6.974;2023-06-10T04:42:10;16.70;99.90
52513;DHT22;38422;53.172;6.974;2023-06-10T04:44:36;16.80;99.90
52513;DHT22;38422;53.172;6.974;2023-06-10T04:47:02;16.80;99.90
52513;DHT22;38422;53.172;6.974;2023-06-10T04:49:27;16.80;99.90
52513;DHT22;38422;53.172;6.974;2023-06-10T04:51:54;16.80;99.90
52513;DHT22;38422;53.172;6.974;2023-06-10T04:54:19;16.80;99.90
52513;DHT22;38422;53.172;6.974;2023-06-10T04:56:45;16.80;99.90
52513;DHT22;38422;53.172;6.974;2023-06-10T04:59:12;16.90;99.90
52513;DHT22;38422;53.172;6.974;2023-06-10T05:01:39;16.90;99.90
52513;DHT22;38422;53.172;6.974;2023-06-10T05:04:05;16.90;99.90
52513;DHT22;38422;53.172;6.974;2023-06-10T05:06:31;16.90;99.90
52513;DHT22;38422;53.172;6.974;2023-06-10T05:08:56;16.90;99.90
52513;DHT22;38422;53.172;6.974;2023-06-10T05:11:22;16.90;99.90
52513;DHT22;38422;53.172;6.974;2023-06-10T05:13:48;16.90;99.90
52513;DHT22;38422;53.172;6.974;2023-06-10T05:16:14;16.90;99.90
52513;DHT22;38422;53.172;6.974;2023-06-10T05:18:40;16.90;99.90
52513;DHT22;38422;53.172;6.974;2023-06-10T05:21:06;17.00;99.90
52513;DHT22;38422;53.172;6.974;2023-06-10T05:23:33;17.00;99.90
52513;DHT22;38422;53.172;6.974;2023-06-10T05:25:59;17.10;99.90
52513;DHT22;38422;53.172;6.974;2023-06-10T05:28:25;17.10;99.90
52513;DHT22;38422;53.172;6.974;2023-06-10T05:30:51;17.20;99.90
52513;DHT22;38422;53.172;6.974;2023-06-10T05:33:17;17.20;99.90
52513;DHT22;38422;53.172;6.974;2023-06-10T05:35:42;17.20;99.90
52513;DHT22;38422;53.172;6.974;2023-06-10T05:38:08;17.20;99.90
52513;DHT22;38422;53.172;6.974;2023-06-10T05:40:34;17.20;99.90
52513;DHT22;38422;53.172;6.974;2023-06-10T05:43:00;17.10;99.90
52513;DHT22;38422;53.172;6.974;2023-06-10T05:45:26;17.10;99.90
52513;DHT22;38422;53.172;6.974;2023-06-10T05:47:52;17.10;99.90
52513;DHT22;38422;53.172;6.974;2023-06-10T05:50:18;17.10;99.90
52513;DHT22;38422;53.172;6.974;2023-06-10T05:52:43;17.10;99.90
52513;DHT22;38422;53.172;6.974;2023-06-10T05:55:09;17.10;99.90
52513;DHT22;38422;53.172;6.974;2023-06-10T05:57:35;17.10;99.90
52513;DHT22;38422;53.172;6.974;2023-06-10T06:00:01;17.20;99.90
52513;DHT22;38422;53.172;6.974;2023-06-10T06:02:26;17.20;99.90
52513;DHT22;38422;53.172;6.974;2023-06-10T06:04:52;17.20;99.90
52513;DHT22;38422;53.172;6.974;2023-06-10T06:07:18;17.30;99.90
52513;DHT22;38422;53.172;6.974;2023-06-10T06:09:46;17.30;99.90
52513;DHT22;38422;53.172;6.974;2023-06-10T06:12:12;17.30;99.90
52513;DHT22;38422;53.172;6.974;2023-06-10T06:14:38;17.30;99.90
52513;DHT22;38422;53.172;6.974;2023-06-10T06:17:07;17.40;99.90
52513;DHT22;38422;53.172;6.974;2023-06-10T06:19:33;17.40;99.90
52513;DHT22;38422;53.172;6.974;2023-06-10T06:21:59;17.40;99.90
52513;DHT22;38422;53.172;6.974;2023-06-10T06:24:25;17.40;99.90
52513;DHT22;38422;53.172;6.974;2023-06-10T06:26:51;17.40;99.90
52513;DHT22;38422;53.172;6.974;2023-06-10T06:29:16;17.50;99.90
52513;DHT22;38422;53.172;6.974;2023-06-10T06:31:42;17.50;99.90
52513;DHT22;38422;53.172;6.974;2023-06-10T06:34:08;17.50;99.90
52513;DHT22;38422;53.172;6.974;2023-06-10T06:36:33;17.50;99.90
52513;DHT22;38422;53.172;6.974;2023-06-10T06:38:59;17.60;99.90
52513;DHT22;38422;53.172;6.974;2023-06-10T06:41:28;17.70;99.90
52513;DHT22;38422;53.172;6.974;2023-06-10T06:43:54;17.70;99.90
52513;DHT22;38422;53.172;6.974;2023-06-10T06:46:20;17.70;99.90
52513;DHT22;38422;53.172;6.974;2023-06-10T06:48:47;17.70;99.90
52513;DHT22;38422;53.172;6.974;2023-06-10T06:51:12;17.70;99.90
52513;DHT22;38422;53.172;6.974;2023-06-10T06:53:39;17.70;99.90
52513;DHT22;38422;53.172;6.974;2023-06-10T06:56:10;17.80;99.90
52513;DHT22;38422;53.172;6.974;2023-06-10T06:58:36;17.80;99.90
52513;DHT22;38422;53.172;6.974;2023-06-10T07:01:01;17.80;99.90
52513;DHT22;38422;53.172;6.974;2023-06-10T07:03:27;17.90;99.90
52513;DHT22;38422;53.172;6.974;2023-06-10T07:05:53;17.90;99.90
52513;DHT22;38422;53.172;6.974;2023-06-10T07:08:18;18.00;99.90
52513;DHT22;38422;53.172;6.974;2023-06-10T07:10:44;18.10;99.90
52513;DHT22;38422;53.172;6.974;2023-06-10T07:13:10;18.10;99.90
52513;DHT22;38422;53.172;6.974;2023-06-10T07:15:36;18.20;99.90
52513;DHT22;38422;53.172;6.974;2023-06-10T07:18:01;18.20;99.90
52513;DHT22;38422;53.172;6.974;2023-06-10T07:20:27;18.30;99.90
52513;DHT22;38422;53.172;6.974;2023-06-10T07:22:53;18.30;99.90
52513;DHT22;38422;53.172;6.974;2023-06-10T07:25:19;18.40;99.90
52513;DHT22;38422;53.172;6.974;2023-06-10T07:27:44;18.40;99.90
52513;DHT22;38422;53.172;6.974;2023-06-10T07:30:10;18.50;99.90
52513;DHT22;38422;53.172;6.974;2023-06-10T07:32:36;18.50;99.90
52513;DHT22;38422;53.172;6.974;2023-06-10T07:35:02;18.60;99.90
52513;DHT22;38422;53.172;6.974;2023-06-10T07:37:28;18.60;99.90
52513;DHT22;38422;53.172;6.974;2023-06-10T07:39:54;18.70;99.90
52513;DHT22;38422;53.172;6.974;2023-06-10T07:42:20;18.80;99.90
52513;DHT22;38422;53.172;6.974;2023-06-10T07:44:46;18.90;99.90
52513;DHT22;38422;53.172;6.974;2023-06-10T07:47:12;19.00;99.90
52513;DHT22;38422;53.172;6.974;2023-06-10T07:49:38;19.00;99.90
52513;DHT22;38422;53.172;6.974;2023-06-10T07:52:04;19.10;99.90
52513;DHT22;38422;53.172;6.974;2023-06-10T07:54:29;19.20;99.90
52513;DHT22;38422;53.172;6.974;2023-06-10T07:56:55;19.20;99.90
52513;DHT22;38422;53.172;6.974;2023-06-10T07:59:21;19.30;99.90
52513;DHT22;38422;53.172;6.974;2023-06-10T08:01:46;19.40;99.90
52513;DHT22;38422;53.172;6.974;2023-06-10T08:04:12;19.40;99.90
52513;DHT22;38422;53.172;6.974;2023-06-10T08:06:38;19.50;99.90
52513;DHT22;38422;53.172;6.974;2023-06-10T08:09:04;19.60;99.90
52513;DHT22;38422;53.172;6.974;2023-06-10T08:11:30;19.60;99.90
52513;DHT22;38422;53.172;6.974;2023-06-10T08:13:55;19.70;99.90
52513;DHT22;38422;53.172;6.974;2023-06-10T08:16:21;19.70;99.90
52513;DHT22;38422;53.172;6.974;2023-06-10T08:18:47;19.80;99.90
52513;DHT22;38422;53.172;6.974;2023-06-10T08:21:13;19.90;99.90
52513;DHT22;38422;53.172;6.974;2023-06-10T08:23:38;20.00;99.90
52513;DHT22;38422;53.172;6.974;2023-06-10T08:26:04;20.10;99.90
52513;DHT22;38422;53.172;6.974;2023-06-10T08:28:30;20.20;99.90
52513;DHT22;38422;53.172;6.974;2023-06-10T08:30:56;20.30;99.90
52513;DHT22;38422;53.172;6.974;2023-06-10T08:33:21;20.30;99.90
52513;DHT22;38422;53.172;6.974;2023-06-10T08:35:47;20.40;99.90
52513;DHT22;38422;53.172;6.974;2023-06-10T08:38:13;20.50;99.90
52513;DHT22;38422;53.172;6.974;2023-06-10T08:40:38;20.60;99.90
52513;DHT22;38422;53.172;6.974;2023-06-10T08:43:08;20.70;99.90
52513;DHT22;38422;53.172;6.974;2023-06-10T08:45:36;20.80;99.90
52513;DHT22;38422;53.172;6.974;2023-06-10T08:48:03;20.90;99.90
52513;DHT22;38422;53.172;6.974;2023-06-10T08:50:34;21.00;99.90
52513;DHT22;38422;53.172;6.974;2023-06-10T08:53:01;21.10;99.90
52513;DHT22;38422;53.172;6.974;2023-06-10T08:55:41;21.20;99.90
52513;DHT22;38422;53.172;6.974;2023-06-10T08:58:07;21.30;99.90
52513;DHT22;38422;53.172;6.974;2023-06-10T09:00:34;21.40;99.90
52513;DHT22;38422;53.172;6.974;2023-06-10T09:03:00;21.40;99.90
52513;DHT22;38422;53.172;6.974;2023-06-10T09:05:28;21.60;99.90
52513;DHT22;38422;53.172;6.974;2023-06-10T09:07:56;21.70;99.90
52513;DHT22;38422;53.172;6.974;2023-06-10T09:10:22;21.80;99.90
52513;DHT22;38422;53.172;6.974;2023-06-10T09:12:48;21.90;99.90
52513;DHT22;38422;53.172;6.974;2023-06-10T09:15:14;22.00;99.90
52513;DHT22;38422;53.172;6.974;2023-06-10T09:17:40;22.20;99.90
52513;DHT22;38422;53.172;6.974;2023-06-10T09:20:07;22.30;99.90
52513;DHT22;38422;53.172;6.974;2023-06-10T09:22:33;22.50;99.90
52513;DHT22;38422;53.172;6.974;2023-06-10T09:25:07;22.60;99.40
52513;DHT22;38422;53.172;6.974;2023-06-10T09:27:54;22.70;98.90
52513;DHT22;38422;53.172;6.974;2023-06-10T09:32:55;23.00;98.70
52513;DHT22;38422;53.172;6.974;2023-06-10T09:35:25;23.20;98.60
52513;DHT22;38422;53.172;6.974;2023-06-10T09:37:55;23.40;98.20
52513;DHT22;38422;53.172;6.974;2023-06-10T09:40:21;23.60;98.00
52513;DHT22;38422;53.172;6.974;2023-06-10T09:42:59;23.90;97.60
52513;DHT22;38422;53.172;6.974;2023-06-10T09:45:32;24.30;96.70
52513;DHT22;38422;53.172;6.974;2023-06-10T09:47:58;24.60;96.40
52513;DHT22;38422;53.172;6.974;2023-06-10T09:50:23;24.90;96.40
52513;DHT22;38422;53.172;6.974;2023-06-10T09:52:50;25.30;95.70
52513;DHT22;38422;53.172;6.974;2023-06-10T09:55:17;25.60;95.30
52513;DHT22;38422;53.172;6.974;2023-06-10T09:57:43;25.80;95.20
52513;DHT22;38422;53.172;6.974;2023-06-10T10:00:13;25.90;94.20
52513;DHT22;38422;53.172;6.974;2023-06-10T10:02:49;26.10;93.80
52513;DHT22;38422;53.172;6.974;2023-06-10T10:05:16;26.30;93.20
52513;DHT22;38422;53.172;6.974;2023-06-10T10:07:43;26.40;93.10
52513;DHT22;38422;53.172;6.974;2023-06-10T10:10:09;26.60;92.50
52513;DHT22;38422;53.172;6.974;2023-06-10T10:12:38;26.70;92.40
52513;DHT22;38422;53.172;6.974;2023-06-10T10:15:09;26.80;91.70
52513;DHT22;38422;53.172;6.974;2023-06-10T10:17:58;26.90;91.20
52513;DHT22;38422;53.172;6.974;2023-06-10T10:20:29;27.20;90.50
52513;DHT22;38422;53.172;6.974;2023-06-10T10:22:57;27.30;90.80
52513;DHT22;38422;53.172;6.974;2023-06-10T10:25:24;27.40;90.90
52513;DHT22;38422;53.172;6.974;2023-06-10T10:28:02;27.60;87.80
52513;DHT22;38422;53.172;6.974;2023-06-10T10:30:40;27.70;89.50
52513;DHT22;38422;53.172;6.974;2023-06-10T10:33:31;27.90;90.10
52513;DHT22;38422;53.172;6.974;2023-06-10T10:35:59;28.10;89.20
52513;DHT22;38422;53.172;6.974;2023-06-10T10:38:26;28.20;89.70
52513;DHT22;38422;53.172;6.974;2023-06-10T10:40:53;28.30;89.80
52513;DHT22;38422;53.172;6.974;2023-06-10T10:43:21;28.40;89.50
52513;DHT22;38422;53.172;6.974;2023-06-10T10:46:01;28.50;88.90
52513;DHT22;38422;53.172;6.974;2023-06-10T10:48:33;28.60;88.10
52513;DHT22;38422;53.172;6.974;2023-06-10T10:51:00;28.70;87.20
52513;DHT22;38422;53.172;6.974;2023-06-10T10:53:25;28.80;87.30
52513;DHT22;38422;53.172;6.974;2023-06-10T10:56:06;28.90;87.30
52513;DHT22;38422;53.172;6.974;2023-06-10T10:58:35;29.00;86.10
52513;DHT22;38422;53.172;6.974;2023-06-10T11:01:13;29.10;86.70
52513;DHT22;38422;53.172;6.974;2023-06-10T11:03:44;29.20;85.70
52513;DHT22;38422;53.172;6.974;2023-06-10T11:06:14;29.40;85.70
52513;DHT22;38422;53.172;6.974;2023-06-10T11:16:26;30.00;80.60
52513;DHT22;38422;53.172;6.974;2023-06-10T11:18:56;30.20;82.00
52513;DHT22;38422;53.172;6.974;2023-06-10T11:21:25;30.40;80.40
52513;DHT22;38422;53.172;6.974;2023-06-10T11:23:51;30.40;80.80
52513;DHT22;38422;53.172;6.974;2023-06-10T11:31:25;30.70;80.80
52513;DHT22;38422;53.172;6.974;2023-06-10T11:36:24;30.80;79.10
52513;DHT22;38422;53.172;6.974;2023-06-10T11:38:55;30.80;79.30
52513;DHT22;38422;53.172;6.974;2023-06-10T11:41:21;30.80;79.10
52513;DHT22;38422;53.172;6.974;2023-06-10T11:43:47;30.90;79.30
52513;DHT22;38422;53.172;6.974;2023-06-10T11:46:14;30.90;78.40
52513;DHT22;38422;53.172;6.974;2023-06-10T11:48:48;30.80;77.80
52513;DHT22;38422;53.172;6.974;2023-06-10T11:51:14;30.90;77.60
52513;DHT22;38422;53.172;6.974;2023-06-10T11:53:40;31.00;77.20
52513;DHT22;38422;53.172;6.974;2023-06-10T11:56:05;31.10;76.90
52513;DHT22;38422;53.172;6.974;2023-06-10T11:58:31;31.30;75.90
52513;DHT22;38422;53.172;6.974;2023-06-10T12:00:57;31.30;76.10
52513;DHT22;38422;53.172;6.974;2023-06-10T12:03:24;31.40;76.60
52513;DHT22;38422;53.172;6.974;2023-06-10T12:06:01;31.50;75.90
52513;DHT22;38422;53.172;6.974;2023-06-10T12:08:28;31.70;75.40
52513;DHT22;38422;53.172;6.974;2023-06-10T12:10:54;31.90;76.00
52513;DHT22;38422;53.172;6.974;2023-06-10T12:13:21;31.80;75.40
52513;DHT22;38422;53.172;6.974;2023-06-10T12:15:47;32.00;75.00
52513;DHT22;38422;53.172;6.974;2023-06-10T12:18:19;32.10;74.70
52513;DHT22;38422;53.172;6.974;2023-06-10T12:20:45;32.10;73.30
52513;DHT22;38422;53.172;6.974;2023-06-10T12:23:12;32.10;73.70
52513;DHT22;38422;53.172;6.974;2023-06-10T12:25:38;32.20;73.40
52513;DHT22;38422;53.172;6.974;2023-06-10T12:28:05;32.30;72.70
52513;DHT22;38422;53.172;6.974;2023-06-10T12:30:31;32.20;71.90
52513;DHT22;38422;53.172;6.974;2023-06-10T12:32:58;32.40;72.30
52513;DHT22;38422;53.172;6.974;2023-06-10T12:35:24;32.50;72.10
52513;DHT22;38422;53.172;6.974;2023-06-10T12:37:58;32.60;71.60
52513;DHT22;38422;53.172;6.974;2023-06-10T12:40:35;32.70;70.00
52513;DHT22;38422;53.172;6.974;2023-06-10T12:43:02;32.80;70.20
52513;DHT22;38422;53.172;6.974;2023-06-10T12:45:29;32.90;69.50
52513;DHT22;38422;53.172;6.974;2023-06-10T12:48:21;33.00;68.60
52513;DHT22;38422;53.172;6.974;2023-06-10T12:50:52;33.10;67.10
52513;DHT22;38422;53.172;6.974;2023-06-10T12:53:19;33.20;67.80
52513;DHT22;38422;53.172;6.974;2023-06-10T12:55:45;33.30;68.40
52513;DHT22;38422;53.172;6.974;2023-06-10T12:58:11;33.50;68.20
52513;DHT22;38422;53.172;6.974;2023-06-10T13:00:37;33.70;67.50
52513;DHT22;38422;53.172;6.974;2023-06-10T13:03:04;33.90;67.40
52513;DHT22;38422;53.172;6.974;2023-06-10T13:05:31;33.90;67.30
52513;DHT22;38422;53.172;6.974;2023-06-10T13:07:57;34.00;66.90
52513;DHT22;38422;53.172;6.974;2023-06-10T13:10:24;34.20;66.40
52513;DHT22;38422;53.172;6.974;2023-06-10T13:12:50;34.30;66.80
52513;DHT22;38422;53.172;6.974;2023-06-10T13:15:16;34.20;66.00
52513;DHT22;38422;53.172;6.974;2023-06-10T13:17:46;34.30;65.30
52513;DHT22;38422;53.172;6.974;2023-06-10T13:20:16;34.30;64.20
52513;DHT22;38422;53.172;6.974;2023-06-10T13:22:42;34.30;64.20
52513;DHT22;38422;53.172;6.974;2023-06-10T13:25:09;34.30;64.00
52513;DHT22;38422;53.172;6.974;2023-06-10T13:27:35;34.40;63.30
52513;DHT22;38422;53.172;6.974;2023-06-10T13:30:04;34.30;62.70
52513;DHT22;38422;53.172;6.974;2023-06-10T13:32:30;34.40;63.20
52513;DHT22;38422;53.172;6.974;2023-06-10T13:34:56;34.30;62.80
52513;DHT22;38422;53.172;6.974;2023-06-10T13:37:22;34.40;62.70
52513;DHT22;38422;53.172;6.974;2023-06-10T13:39:48;34.40;62.70
52513;DHT22;38422;53.172;6.974;2023-06-10T13:42:19;34.50;63.10
52513;DHT22;38422;53.172;6.974;2023-06-10T13:44:46;34.70;62.20
52513;DHT22;38422;53.172;6.974;2023-06-10T13:47:13;34.70;61.90
52513;DHT22;38422;53.172;6.974;2023-06-10T13:49:39;34.80;61.90
52513;DHT22;38422;53.172;6.974;2023-06-10T13:52:06;34.90;62.20
52513;DHT22;38422;53.172;6.974;2023-06-10T13:54:33;34.90;61.00
52513;DHT22;38422;53.172;6.974;2023-06-10T13:56:59;35.10;61.00
52513;DHT22;38422;53.172;6.974;2023-06-10T13:59:25;35.10;60.60
52513;DHT22;38422;53.172;6.974;2023-06-10T14:01:51;35.10;61.00
52513;DHT22;38422;53.172;6.974;2023-06-10T14:04:17;35.20;60.80
52513;DHT22;38422;53.172;6.974;2023-06-10T14:06:43;35.30;60.90
52513;DHT22;38422;53.172;6.974;2023-06-10T14:09:09;35.40;60.90
52513;DHT22;38422;53.172;6.974;2023-06-10T14:11:34;35.60;60.70
52513;DHT22;38422;53.172;6.974;2023-06-10T14:14:00;35.70;60.30
52513;DHT22;38422;53.172;6.974;2023-06-10T14:16:26;35.60;59.70
52513;DHT22;38422;53.172;6.974;2023-06-10T14:18:52;35.60;59.50
52513;DHT22;38422;53.172;6.974;2023-06-10T14:21:18;35.70;58.50
52513;DHT22;38422;53.172;6.974;2023-06-10T14:23:44;35.80;59.40
52513;DHT22;38422;53.172;6.974;2023-06-10T14:26:11;35.70;58.60
52513;DHT22;38422;53.172;6.974;2023-06-10T14:28:37;35.70;59.20
52513;DHT22;38422;53.172;6.974;2023-06-10T14:31:03;35.60;59.10
52513;DHT22;38422;53.172;6.974;2023-06-10T14:33:28;35.80;59.20
52513;DHT22;38422;53.172;6.974;2023-06-10T14:35:56;35.90;58.00
52513;DHT22;38422;53.172;6.974;2023-06-10T14:38:22;36.00;57.50
52513;DHT22;38422;53.172;6.974;2023-06-10T14:40:47;36.10;57.10
52513;DHT22;38422;53.172;6.974;2023-06-10T14:43:13;36.10;56.30
52513;DHT22;38422;53.172;6.974;2023-06-10T14:45:40;36.00;56.50
52513;DHT22;38422;53.172;6.974;2023-06-10T14:48:06;36.10;56.40
52513;DHT22;38422;53.172;6.974;2023-06-10T14:50:36;36.10;56.20
52513;DHT22;38422;53.172;6.974;2023-06-10T14:53:02;36.20;55.80
52513;DHT22;38422;53.172;6.974;2023-06-10T14:55:27;36.30;55.90
52513;DHT22;38422;53.172;6.974;2023-06-10T14:57:53;36.30;55.20
52513;DHT22;38422;53.172;6.974;2023-06-10T15:00:19;36.30;55.50
52513;DHT22;38422;53.172;6.974;2023-06-10T15:02:50;36.40;55.50
52513;DHT22;38422;53.172;6.974;2023-06-10T15:05:16;36.40;54.90
52513;DHT22;38422;53.172;6.974;2023-06-10T15:07:43;36.40;55.50
52513;DHT22;38422;53.172;6.974;2023-06-10T15:10:09;36.50;55.20
52513;DHT22;38422;53.172;6.974;2023-06-10T15:12:35;36.50;54.00
52513;DHT22;38422;53.172;6.974;2023-06-10T15:15:02;36.50;54.10
52513;DHT22;38422;53.172;6.974;2023-06-10T15:17:28;36.50;54.70
52513;DHT22;38422;53.172;6.974;2023-06-10T15:19:54;36.40;54.50
52513;DHT22;38422;53.172;6.974;2023-06-10T15:22:20;36.30;53.70
52513;DHT22;38422;53.172;6.974;2023-06-10T15:24:46;36.40;53.90
52513;DHT22;38422;53.172;6.974;2023-06-10T15:27:11;36.40;52.00
52513;DHT22;38422;53.172;6.974;2023-06-10T15:29:37;36.50;53.40
52513;DHT22;38422;53.172;6.974;2023-06-10T15:32:03;36.50;53.20
52513;DHT22;38422;53.172;6.974;2023-06-10T15:34:29;36.50;52.80
52513;DHT22;38422;53.172;6.974;2023-06-10T15:36:54;36.50;53.00
52513;DHT22;38422;53.172;6.974;2023-06-10T15:39:20;36.40;52.80
52513;DHT22;38422;53.172;6.974;2023-06-10T15:41:46;36.20;52.00
52513;DHT22;38422;53.172;6.974;2023-06-10T15:44:11;36.30;52.90
52513;DHT22;38422;53.172;6.974;2023-06-10T15:46:37;36.20;52.80
52513;DHT22;38422;53.172;6.974;2023-06-10T15:49:03;36.30;52.00
52513;DHT22;38422;53.172;6.974;2023-06-10T15:51:29;36.40;51.40
52513;DHT22;38422;53.172;6.974;2023-06-10T15:53:55;36.10;50.90